Time;durP1;ratioP1;P1;durP2;ratioP2;P2;SDS_P1;SDS_P2;PMS_P1;PMS_P2;Temp;Humidity;BMP_temperature;BMP_pressure;BME280_temperature;BME280_humidity;BME280_pressure;Samples;Min_cycle;Max_cycle;Signal;HPM_P1;HPM_P2
2023/04/04 00:01:12;;;;;;;;;;;;;;;5.24;100.00;96763.97;110691;1238;68584;-76
2023/04/04 00:03:41;;;;;;;;;;;;;;;5.26;100.00;96765.77;110284;1243;68462;-75
2023/04/04 00:06:12;;;;;;;;;;;;;;;5.27;100.00;96766.73;110596;1241;59617;-74
2023/04/04 00:08:42;;;;;;;;;;;;;;;5.25;100.00;96770.17;110688;1241;59675;-76
2023/04/04 00:11:12;;;;;;;;;;;;;;;5.19;100.00;96771.77;110670;1240;71392;-76
2023/04/04 00:13:44;;;;;;;;;;;;;;;5.12;100.00;96772.83;110614;1239;69681;-76
2023/04/04 00:16:14;;;;;;;;;;;;;;;5.04;100.00;96773.83;110637;1238;69372;-76
2023/04/04 00:18:46;;;;;;;;;;;;;;;4.99;100.00;96772.59;110646;1240;59726;-76
2023/04/04 00:21:16;;;;;;;;;;;;;;;4.95;100.00;96776.11;110538;1241;59688;-76
2023/04/04 00:23:47;;;;;;;;;;;;;;;4.93;100.00;96774.16;110481;1241;71414;-76
2023/04/04 00:26:17;;;;;;;;;;;;;;;4.92;100.00;96776.46;110571;1241;69279;-76
2023/04/04 00:28:48;;;;;;;;;;;;;;;4.93;100.00;96781.96;110714;1238;68549;-76
2023/04/04 00:31:19;;;;;;;;;;;;;;;4.93;100.00;96784.54;110619;1242;59640;-76
2023/04/04 00:33:51;;;;;;;;;;;;;;;4.92;100.00;96788.57;110628;1238;59756;-76
2023/04/04 00:36:22;;;;;;;;;;;;;;;4.92;100.00;96788.03;110430;1241;71498;-76
2023/04/04 00:38:53;;;;;;;;;;;;;;;4.91;100.00;96793.33;110482;1238;68202;-75
2023/04/04 00:41:24;;;;;;;;;;;;;;;4.89;100.00;96792.16;110290;1242;69281;-76
2023/04/04 00:43:55;;;;;;;;;;;;;;;4.88;100.00;96793.45;110328;1242;60030;-76
2023/04/04 00:46:26;;;;;;;;;;;;;;;4.88;100.00;96791.76;110371;1242;59708;-75
2023/04/04 00:48:56;;;;;;;;;;;;;;;4.87;100.00;96794.07;110565;1238;71417;-75
2023/04/04 00:51:26;;;;;;;;;;;;;;;4.86;100.00;96795.49;110463;1241;68082;-76
2023/04/04 00:53:56;;;;;;;;;;;;;;;4.83;100.00;96792.89;110202;1244;68140;-76
2023/04/04 00:56:27;;;;;;;;;;;;;;;4.80;100.00;96786.70;110376;1240;59760;-76
2023/04/04 00:59:00;;;;;;;;;;;;;;;4.78;100.00;96783.16;110437;1241;59665;-75
2023/04/04 01:01:31;;;;;;;;;;;;;;;4.75;100.00;96781.27;110470;1240;71385;-75
2023/04/04 01:04:05;;;;;;;;;;;;;;;4.72;100.00;96777.65;110397;1241;68466;-76
2023/04/04 01:06:35;;;;;;;;;;;;;;;4.71;100.00;96775.83;110502;1242;68418;-75
2023/04/04 01:09:06;;;;;;;;;;;;;;;4.70;100.00;96777.79;110196;1244;59750;-75
2023/04/04 01:11:37;;;;;;;;;;;;;;;4.69;100.00;96774.90;110383;1242;59688;-74
2023/04/04 01:14:08;;;;;;;;;;;;;;;4.67;100.00;96773.80;110635;1238;71378;-73
2023/04/04 01:16:40;;;;;;;;;;;;;;;4.65;100.00;96772.77;110623;1238;69208;-74
2023/04/04 01:19:16;;;;;;;;;;;;;;;4.61;100.00;96774.70;110243;1242;69328;-74
2023/04/04 01:21:48;;;;;;;;;;;;;;;4.55;100.00;96777.25;110223;1243;59789;-76
2023/04/04 01:24:21;;;;;;;;;;;;;;;4.51;100.00;96775.64;110458;1241;59680;-74
2023/04/04 01:26:59;;;;;;;;;;;;;;;4.48;100.00;96782.02;110429;1241;71057;-76
2023/04/04 01:29:31;;;;;;;;;;;;;;;4.45;100.00;96782.90;110332;1238;69372;-74
2023/04/04 01:32:06;;;;;;;;;;;;;;;4.43;100.00;96788.52;110569;1241;68328;-75
2023/04/04 01:34:42;;;;;;;;;;;;;;;4.39;100.00;96789.25;110548;1241;59722;-75
2023/04/04 01:37:26;;;;;;;;;;;;;;;4.36;100.00;96789.98;110449;1241;59692;-74
2023/04/04 01:40:04;;;;;;;;;;;;;;;4.29;100.00;96786.38;110199;1243;71936;-74
2023/04/04 01:42:35;;;;;;;;;;;;;;;4.26;100.00;96786.75;110222;1242;69336;-74
2023/04/04 01:45:08;;;;;;;;;;;;;;;4.20;100.00;96782.58;110295;1242;67842;-74
2023/04/04 01:47:40;;;;;;;;;;;;;;;4.19;100.00;96781.61;110570;1241;59731;-75
2023/04/04 01:50:16;;;;;;;;;;;;;;;4.14;100.00;96776.76;110507;1241;59672;-76
2023/04/04 01:52:47;;;;;;;;;;;;;;;4.10;100.00;96778.14;110352;1242;71367;-75
2023/04/04 01:55:17;;;;;;;;;;;;;;;4.09;100.00;96776.16;110462;1241;68654;-75
2023/04/04 01:57:48;;;;;;;;;;;;;;;4.06;100.00;96775.25;110254;1242;68524;-75
2023/04/04 02:00:18;;;;;;;;;;;;;;;4.03;100.00;96769.71;110311;1238;59799;-75
2023/04/04 02:02:49;;;;;;;;;;;;;;;4.02;100.00;96768.11;110612;1238;59690;-75
2023/04/04 02:05:21;;;;;;;;;;;;;;;3.99;100.00;96765.34;110606;1242;71390;-75
2023/04/04 02:07:54;;;;;;;;;;;;;;;3.95;100.00;96764.38;110604;1238;68657;-75
2023/04/04 02:10:37;;;;;;;;;;;;;;;3.92;100.00;96765.04;110514;1241;69613;-75
2023/04/04 02:13:09;;;;;;;;;;;;;;;3.88;100.00;96765.45;110513;1240;59696;-74
2023/04/04 02:15:39;;;;;;;;;;;;;;;3.86;100.00;96764.00;110473;1241;59714;-75
2023/04/04 02:18:12;;;;;;;;;;;;;;;3.85;100.00;96766.46;110369;1242;70604;-74
2023/04/04 02:20:42;;;;;;;;;;;;;;;3.83;100.00;96763.66;110594;1238;68301;-74
2023/04/04 02:23:14;;;;;;;;;;;;;;;3.81;100.00;96768.79;110334;1238;68555;-75
2023/04/04 02:25:44;;;;;;;;;;;;;;;3.80;100.00;96765.36;110336;1242;59726;-74
2023/04/04 02:28:14;;;;;;;;;;;;;;;3.78;100.00;96767.40;110348;1242;59685;-75
2023/04/04 02:30:44;;;;;;;;;;;;;;;3.76;100.00;96763.55;110569;1238;71227;-76
2023/04/04 02:33:14;;;;;;;;;;;;;;;3.76;100.00;96766.48;110415;1241;68287;-75
2023/04/04 02:35:44;;;;;;;;;;;;;;;3.75;100.00;96769.79;110281;1238;69691;-75
2023/04/04 02:38:14;;;;;;;;;;;;;;;3.73;100.00;96770.59;110458;1242;59696;-75
2023/04/04 02:40:47;;;;;;;;;;;;;;;3.69;100.00;96765.30;110230;1245;59746;-75
2023/04/04 02:43:17;;;;;;;;;;;;;;;3.70;100.00;96765.60;110206;1241;71887;-75
2023/04/04 02:45:49;;;;;;;;;;;;;;;3.68;100.00;96766.24;110351;1242;69220;-75
2023/04/04 02:48:24;;;;;;;;;;;;;;;3.63;100.00;96766.49;110561;1239;69950;-75
2023/04/04 02:50:58;;;;;;;;;;;;;;;3.57;100.00;96763.19;110632;1241;59745;-75
2023/04/04 02:53:28;;;;;;;;;;;;;;;3.54;100.00;96766.79;110349;1238;59684;-74
2023/04/04 02:56:02;;;;;;;;;;;;;;;3.51;100.00;96768.38;110647;1240;71724;-75
2023/04/04 02:58:33;;;;;;;;;;;;;;;3.50;100.00;96766.69;110397;1238;68414;-74
2023/04/04 03:01:04;;;;;;;;;;;;;;;3.50;100.00;96769.80;110585;1242;68508;-75
2023/04/04 03:03:37;;;;;;;;;;;;;;;3.49;100.00;96767.42;110471;1242;59690;-75
2023/04/04 03:06:07;;;;;;;;;;;;;;;3.51;100.00;96768.36;110322;1242;59695;-75
2023/04/04 03:08:37;;;;;;;;;;;;;;;3.49;100.00;96772.24;110583;1241;72080;-75
2023/04/04 03:11:08;;;;;;;;;;;;;;;3.44;100.00;96770.61;110556;1239;69038;-76
2023/04/04 03:13:40;;;;;;;;;;;;;;;3.41;100.00;96771.67;110302;1242;69323;-74
2023/04/04 03:16:12;;;;;;;;;;;;;;;3.39;100.00;96771.11;110431;1240;59727;-76
2023/04/04 03:18:47;;;;;;;;;;;;;;;3.36;100.00;96767.81;110445;1242;59709;-76
2023/04/04 03:21:18;;;;;;;;;;;;;;;3.35;100.00;96766.45;110423;1239;71920;-74
2023/04/04 03:23:48;;;;;;;;;;;;;;;3.33;100.00;96766.42;110329;1242;69283;-75
2023/04/04 03:26:18;;;;;;;;;;;;;;;3.34;100.00;96764.34;110513;1241;69223;-74
2023/04/04 03:28:48;;;;;;;;;;;;;;;3.33;100.00;96763.30;110360;1242;59737;-74
2023/04/04 03:31:19;;;;;;;;;;;;;;;3.33;100.00;96761.39;110348;1240;59723;-75
2023/04/04 03:33:50;;;;;;;;;;;;;;;3.35;100.00;96758.41;110624;1242;69635;-74
2023/04/04 03:36:21;;;;;;;;;;;;;;;3.36;100.00;96759.67;110550;1240;68342;-74
2023/04/04 03:38:51;;;;;;;;;;;;;;;3.39;100.00;96759.36;110199;1242;69299;-74
2023/04/04 03:41:21;;;;;;;;;;;;;;;3.43;100.00;96761.41;110312;1241;59663;-75
2023/04/04 03:43:52;;;;;;;;;;;;;;;3.46;100.00;96762.77;110332;1242;59657;-74
2023/04/04 03:46:22;;;;;;;;;;;;;;;3.48;100.00;96764.89;110310;1240;71350;-75
2023/04/04 03:48:52;;;;;;;;;;;;;;;3.50;100.00;96769.61;110334;1242;68486;-74
2023/04/04 03:51:22;;;;;;;;;;;;;;;3.51;100.00;96770.58;110327;1241;69247;-74
2023/04/04 03:53:52;;;;;;;;;;;;;;;3.51;100.00;96774.23;110269;1241;59664;-74
2023/04/04 03:56:22;;;;;;;;;;;;;;;3.50;100.00;96776.52;110346;1242;59624;-74
2023/04/04 03:58:54;;;;;;;;;;;;;;;3.48;100.00;96775.75;110345;1241;72044;-73
2023/04/04 04:01:25;;;;;;;;;;;;;;;3.43;100.00;96775.49;110153;1242;69176;-74
2023/04/04 04:03:55;;;;;;;;;;;;;;;3.40;100.00;96776.52;110204;1244;69272;-73
2023/04/04 04:06:25;;;;;;;;;;;;;;;3.36;100.00;96778.63;110508;1242;59735;-74
2023/04/04 04:08:55;;;;;;;;;;;;;;;3.30;100.00;96773.11;110352;1240;59678;-75
2023/04/04 04:11:25;;;;;;;;;;;;;;;3.30;100.00;96776.22;110335;1238;71228;-76
2023/04/04 04:13:55;;;;;;;;;;;;;;;3.24;100.00;96775.02;110621;1240;69660;-74
2023/04/04 04:16:25;;;;;;;;;;;;;;;3.19;100.00;96774.76;110487;1246;69308;-73
2023/04/04 04:18:54;;;;;;;;;;;;;;;3.16;100.00;96773.88;110567;1241;59694;-74
2023/04/04 04:21:33;;;;;;;;;;;;;;;3.17;100.00;96773.63;110628;1241;59649;-75
2023/04/04 04:24:02;;;;;;;;;;;;;;;3.17;100.00;96774.36;110594;1241;70750;-74
2023/04/04 04:26:31;;;;;;;;;;;;;;;3.15;100.00;96773.61;110646;1241;69318;-74
2023/04/04 04:29:01;;;;;;;;;;;;;;;3.14;100.00;96775.18;110520;1241;68551;-74
2023/04/04 04:31:33;;;;;;;;;;;;;;;3.08;100.00;96769.80;110287;1241;59767;-74
2023/04/04 04:34:04;;;;;;;;;;;;;;;3.06;100.00;96770.45;110252;1243;59669;-74
2023/04/04 04:36:34;;;;;;;;;;;;;;;3.01;100.00;96770.66;110208;1242;71621;-74
2023/04/04 04:39:22;;;;;;;;;;;;;;;3.00;100.00;96774.20;110551;1242;69139;-75
2023/04/04 04:42:20;;;;;;;;;;;;;;;2.91;100.00;96771.60;110422;1241;69319;-74
2023/04/04 04:44:54;;;;;;;;;;;;;;;2.84;100.00;96769.02;110483;1240;60130;-74
2023/04/04 04:47:24;;;;;;;;;;;;;;;2.76;100.00;96769.41;110212;1243;59728;-74
2023/04/04 04:49:53;;;;;;;;;;;;;;;2.65;100.00;96771.19;110543;1241;71418;-74
2023/04/04 04:52:35;;;;;;;;;;;;;;;2.56;100.00;96767.54;110519;1241;69675;-74
2023/04/04 04:55:04;;;;;;;;;;;;;;;2.47;100.00;96769.21;110569;1242;68756;-74
2023/04/04 04:57:36;;;;;;;;;;;;;;;2.37;100.00;96772.64;110304;1242;60131;-74
2023/04/04 05:00:12;;;;;;;;;;;;;;;2.31;100.00;96773.61;110159;1245;59753;-74
2023/04/04 05:02:42;;;;;;;;;;;;;;;2.23;100.00;96776.06;110111;1241;71714;-74
2023/04/04 05:05:13;;;;;;;;;;;;;;;2.16;100.00;96775.74;110220;1241;68503;-74
2023/04/04 05:07:46;;;;;;;;;;;;;;;2.15;100.00;96773.35;110519;1241;68529;-74
2023/04/04 05:10:15;;;;;;;;;;;;;;;2.17;100.00;96764.67;110218;1244;59791;-74
2023/04/04 05:12:44;;;;;;;;;;;;;;;2.17;100.00;96762.60;110499;1241;59679;-74
2023/04/04 05:15:20;;;;;;;;;;;;;;;2.19;100.00;96765.29;110225;1245;71189;-75
2023/04/04 05:17:51;;;;;;;;;;;;;;;2.16;100.00;96764.54;110549;1241;69762;-73
2023/04/04 05:20:22;;;;;;;;;;;;;;;2.12;100.00;96769.40;109814;1241;752544;-73
2023/04/04 05:22:51;;;;;;;;;;;;;;;2.12;100.00;96763.92;110210;1244;59701;-73
2023/04/04 05:25:26;;;;;;;;;;;;;;;2.09;100.00;96764.90;110220;1244;59655;-73
2023/04/04 05:27:57;;;;;;;;;;;;;;;2.09;100.00;96765.77;110527;1241;71425;-73
2023/04/04 05:30:27;;;;;;;;;;;;;;;2.10;100.00;96763.33;110231;1244;69302;-73
2023/04/04 05:33:16;;;;;;;;;;;;;;;2.11;100.00;96764.80;110524;1241;70075;-73
2023/04/04 05:35:51;;;;;;;;;;;;;;;2.15;100.00;96766.69;110393;1242;59732;-74
2023/04/04 05:38:20;;;;;;;;;;;;;;;2.19;100.00;96774.05;110579;1241;59657;-74
2023/04/04 05:40:52;;;;;;;;;;;;;;;2.22;100.00;96773.36;110228;1244;70501;-74
2023/04/04 05:43:22;;;;;;;;;;;;;;;2.26;100.00;96769.90;110584;1241;69257;-73
2023/04/04 05:46:01;;;;;;;;;;;;;;;2.30;100.00;96767.48;110555;1241;69252;-74
2023/04/04 05:48:34;;;;;;;;;;;;;;;2.33;100.00;96769.37;110559;1241;59663;-74
2023/04/04 05:51:03;;;;;;;;;;;;;;;2.38;100.00;96769.65;110423;1241;59727;-73
2023/04/04 05:53:44;;;;;;;;;;;;;;;2.45;100.00;96769.43;110208;1244;70920;-74
2023/04/04 05:56:17;;;;;;;;;;;;;;;2.49;100.00;96765.65;110530;1240;68819;-74
2023/04/04 05:58:47;;;;;;;;;;;;;;;2.48;100.00;96769.10;110570;1241;69670;-74
2023/04/04 06:01:17;;;;;;;;;;;;;;;2.45;100.00;96769.44;110565;1241;59679;-75
2023/04/04 06:03:46;;;;;;;;;;;;;;;2.44;100.00;96776.73;110238;1240;59725;-75
2023/04/04 06:06:22;;;;;;;;;;;;;;;2.40;100.00;96772.45;110593;1241;72047;-74
2023/04/04 06:08:52;;;;;;;;;;;;;;;2.38;100.00;96770.66;110250;1243;69158;-75
2023/04/04 06:11:21;;;;;;;;;;;;;;;2.35;100.00;96773.73;110213;1241;70037;-74
2023/04/04 06:13:53;;;;;;;;;;;;;;;2.34;100.00;96775.86;110285;1242;59710;-74
2023/04/04 06:16:25;;;;;;;;;;;;;;;2.31;100.00;96777.04;110249;1240;59733;-72
2023/04/04 06:18:54;;;;;;;;;;;;;;;2.30;100.00;96776.05;110560;1248;72115;-73
2023/04/04 06:21:22;;;;;;;;;;;;;;;2.30;100.00;96776.05;110336;1240;68302;-73
2023/04/04 06:23:51;;;;;;;;;;;;;;;2.29;100.00;96780.07;110495;1242;69916;-74
2023/04/04 06:26:20;;;;;;;;;;;;;;;2.28;100.00;96774.29;110256;1242;59695;-74
2023/04/04 06:28:51;;;;;;;;;;;;;;;2.27;100.00;96777.09;110514;1241;59676;-73
2023/04/04 06:31:27;;;;;;;;;;;;;;;2.28;100.00;96778.23;110267;1238;71520;-73
2023/04/04 06:34:00;;;;;;;;;;;;;;;2.29;100.00;96780.20;110483;1241;69709;-73
2023/04/04 06:36:34;;;;;;;;;;;;;;;2.33;100.00;96777.30;110232;1242;69596;-73
2023/04/04 06:39:04;;;;;;;;;;;;;;;2.32;100.00;96774.76;110612;1241;59672;-73
2023/04/04 06:41:33;;;;;;;;;;;;;;;2.31;100.00;96779.60;110400;1240;59674;-73
2023/04/04 06:44:02;;;;;;;;;;;;;;;2.32;100.00;96780.46;110440;1240;72369;-73
2023/04/04 06:46:32;;;;;;;;;;;;;;;2.36;100.00;96782.66;110497;1241;69197;-74
2023/04/04 06:49:00;;;;;;;;;;;;;;;2.39;100.00;96783.37;110504;1241;68283;-73
2023/04/04 06:51:29;;;;;;;;;;;;;;;2.45;100.00;96780.65;110395;1242;59741;-72
2023/04/04 06:54:00;;;;;;;;;;;;;;;2.48;100.00;96779.79;110421;1241;59747;-72
2023/04/04 06:56:29;;;;;;;;;;;;;;;2.47;100.00;96782.79;110410;1241;71217;-73
2023/04/04 06:58:57;;;;;;;;;;;;;;;2.52;100.00;96786.80;110327;1240;69110;-73
2023/04/04 07:01:26;;;;;;;;;;;;;;;2.58;100.00;96790.83;110361;1241;69527;-73
2023/04/04 07:03:55;;;;;;;;;;;;;;;2.65;100.00;96795.30;110330;1242;59808;-73
2023/04/04 07:06:25;;;;;;;;;;;;;;;2.69;100.00;96797.83;110633;1241;59753;-73
2023/04/04 07:08:54;;;;;;;;;;;;;;;2.69;100.00;96802.33;110670;1240;71501;-73
2023/04/04 07:11:23;;;;;;;;;;;;;;;2.72;100.00;96801.83;110557;1241;69237;-73
2023/04/04 07:13:52;;;;;;;;;;;;;;;2.73;100.00;96802.96;110549;1241;69881;-73
2023/04/04 07:16:21;;;;;;;;;;;;;;;2.76;100.00;96808.48;110604;1239;59674;-73
2023/04/04 07:18:49;;;;;;;;;;;;;;;2.81;100.00;96808.73;110626;1238;59726;-74
2023/04/04 07:21:19;;;;;;;;;;;;;;;2.85;100.00;96808.20;110619;1238;70753;-74
2023/04/04 07:23:49;;;;;;;;;;;;;;;2.87;100.00;96807.61;110645;1239;68477;-74
2023/04/04 07:26:18;;;;;;;;;;;;;;;2.91;100.00;96808.93;110541;1238;68893;-73
2023/04/04 07:28:47;;;;;;;;;;;;;;;2.93;100.00;96811.42;110623;1238;59747;-73
2023/04/04 07:31:15;;;;;;;;;;;;;;;2.97;100.00;96810.30;110628;1241;59681;-74
2023/04/04 07:33:44;;;;;;;;;;;;;;;2.97;100.00;96809.80;110677;1238;71621;-74
2023/04/04 07:36:13;;;;;;;;;;;;;;;3.01;100.00;96804.96;110636;1242;69914;-74
2023/04/04 07:38:42;;;;;;;;;;;;;;;3.02;100.00;96805.39;110607;1241;69282;-74
2023/04/04 07:41:12;;;;;;;;;;;;;;;3.01;100.00;96796.88;110620;1242;59636;-73
2023/04/04 07:43:40;;;;;;;;;;;;;;;2.97;100.00;96797.61;110649;1240;59702;-74
2023/04/04 07:46:09;;;;;;;;;;;;;;;2.98;100.00;96794.28;110651;1241;71163;-74
2023/04/04 07:48:38;;;;;;;;;;;;;;;2.96;100.00;96794.36;110613;1238;70187;-74
2023/04/04 07:51:07;;;;;;;;;;;;;;;2.95;100.00;96790.84;110606;1238;68409;-74
2023/04/04 07:53:36;;;;;;;;;;;;;;;2.92;100.00;96792.14;110599;1242;59741;-74
2023/04/04 07:56:05;;;;;;;;;;;;;;;2.96;100.00;96787.84;110541;1238;59760;-74
2023/04/04 07:58:34;;;;;;;;;;;;;;;2.96;100.00;96789.89;110484;1243;71971;-74
2023/04/04 08:01:03;;;;;;;;;;;;;;;2.98;100.00;96790.30;110560;1241;67566;-73
2023/04/04 08:03:32;;;;;;;;;;;;;;;3.02;100.00;96788.35;110560;1242;69264;-73
2023/04/04 08:06:01;;;;;;;;;;;;;;;3.06;100.00;96787.80;110609;1241;59747;-72
2023/04/04 08:08:30;;;;;;;;;;;;;;;3.08;100.00;96792.18;110379;1242;59705;-72
2023/04/04 08:10:58;;;;;;;;;;;;;;;3.05;100.00;96788.73;110424;1240;71397;-73
2023/04/04 08:13:27;;;;;;;;;;;;;;;3.08;100.00;96786.54;110429;1240;69838;-73
2023/04/04 08:15:56;;;;;;;;;;;;;;;3.05;100.00;96785.98;110571;1242;69083;-73
2023/04/04 08:18:26;;;;;;;;;;;;;;;3.04;100.00;96780.19;110578;1240;59808;-72
2023/04/04 08:20:55;;;;;;;;;;;;;;;3.02;100.00;96779.08;110611;1240;59627;-73
2023/04/04 08:23:24;;;;;;;;;;;;;;;2.98;100.00;96777.58;110561;1242;71960;-73
2023/04/04 08:25:54;;;;;;;;;;;;;;;2.97;100.00;96775.06;110400;1238;69822;-73
2023/04/04 08:28:22;;;;;;;;;;;;;;;2.94;100.00;96775.70;110498;1243;69897;-73
2023/04/04 08:30:53;;;;;;;;;;;;;;;2.91;100.00;96772.09;110389;1242;59645;-74
2023/04/04 08:33:23;;;;;;;;;;;;;;;2.83;100.00;96772.00;110395;1242;59726;-73
2023/04/04 08:36:05;;;;;;;;;;;;;;;2.81;100.00;96772.09;110451;1238;72350;-74
2023/04/04 08:38:33;;;;;;;;;;;;;;;2.79;100.00;96771.69;110416;1240;68131;-73
2023/04/04 08:41:02;;;;;;;;;;;;;;;2.78;100.00;96775.72;110449;1242;68461;-74
2023/04/04 08:43:33;;;;;;;;;;;;;;;2.77;100.00;96775.71;110468;1242;59751;-73
2023/04/04 08:46:03;;;;;;;;;;;;;;;2.83;100.00;96768.04;110501;1240;59727;-74
2023/04/04 08:48:32;;;;;;;;;;;;;;;2.89;100.00;96768.55;110468;1242;71423;-74
2023/04/04 08:51:02;;;;;;;;;;;;;;;2.96;100.00;96768.88;110664;1238;69772;-75
2023/04/04 08:53:33;;;;;;;;;;;;;;;3.07;100.00;96774.52;110472;1242;69835;-75
2023/04/04 08:56:02;;;;;;;;;;;;;;;3.15;100.00;96777.19;110501;1243;59740;-75
2023/04/04 08:58:30;;;;;;;;;;;;;;;3.23;100.00;96774.02;110461;1240;59675;-73
2023/04/04 09:01:00;;;;;;;;;;;;;;;3.24;100.00;96771.04;110411;1241;71558;-73
2023/04/04 09:03:31;;;;;;;;;;;;;;;3.28;100.00;96773.20;110490;1240;69652;-74
2023/04/04 09:06:01;;;;;;;;;;;;;;;3.37;100.00;96770.32;110593;1242;69210;-75
2023/04/04 09:08:30;;;;;;;;;;;;;;;3.41;100.00;96768.73;110639;1241;59706;-74
2023/04/04 09:11:01;;;;;;;;;;;;;;;3.43;100.00;96770.90;110464;1238;59753;-73
2023/04/04 09:13:29;;;;;;;;;;;;;;;3.46;100.00;96770.70;110380;1238;71204;-73
2023/04/04 09:15:59;;;;;;;;;;;;;;;3.49;100.00;96770.52;110570;1242;68502;-73
2023/04/04 09:18:28;;;;;;;;;;;;;;;3.43;100.00;96769.84;110433;1238;69269;-73
2023/04/04 09:20:58;;;;;;;;;;;;;;;3.45;100.00;96771.98;110498;1241;59724;-73
2023/04/04 09:23:27;;;;;;;;;;;;;;;3.38;100.00;96772.00;110438;1241;59734;-73
2023/04/04 09:25:56;;;;;;;;;;;;;;;3.34;100.00;96776.86;110488;1240;71327;-74
2023/04/04 09:28:27;;;;;;;;;;;;;;;3.28;100.00;96783.23;110601;1241;69022;-73
2023/04/04 09:30:58;;;;;;;;;;;;;;;3.28;100.00;96781.31;110380;1243;69898;-74
2023/04/04 09:33:27;;;;;;;;;;;;;;;3.36;100.00;96780.20;110368;1241;59696;-73
2023/04/04 09:36:05;;;;;;;;;;;;;;;3.33;100.00;96780.01;110576;1241;59729;-73
2023/04/04 09:38:36;;;;;;;;;;;;;;;3.25;100.00;96778.55;110592;1242;71377;-74
2023/04/04 09:41:11;;;;;;;;;;;;;;;3.17;100.00;96777.23;110430;1242;69726;-73
2023/04/04 09:43:43;;;;;;;;;;;;;;;3.07;100.00;96777.80;110659;1238;69206;-74
2023/04/04 09:46:14;;;;;;;;;;;;;;;2.93;100.00;96775.08;110598;1240;59811;-74
2023/04/04 09:48:47;;;;;;;;;;;;;;;2.91;100.00;96776.59;110618;1242;59644;-73
2023/04/04 09:51:16;;;;;;;;;;;;;;;2.95;100.00;96778.26;110431;1242;70611;-74
2023/04/04 09:53:46;;;;;;;;;;;;;;;3.01;100.00;96778.28;110499;1242;67795;-74
2023/04/04 09:56:15;;;;;;;;;;;;;;;3.04;100.00;96783.95;110641;1242;70226;-73
2023/04/04 09:58:47;;;;;;;;;;;;;;;3.10;100.00;96783.13;110406;1242;59744;-74
2023/04/04 10:01:32;;;;;;;;;;;;;;;3.20;100.00;96783.13;110600;1242;59663;-74
2023/04/04 10:04:02;;;;;;;;;;;;;;;3.26;100.00;96779.19;110566;1238;71353;-74
2023/04/04 10:06:32;;;;;;;;;;;;;;;3.34;100.00;96780.30;110621;1241;68070;-74
2023/04/04 10:09:02;;;;;;;;;;;;;;;3.40;100.00;96783.28;110608;1238;68729;-74
2023/04/04 10:11:32;;;;;;;;;;;;;;;3.46;100.00;96774.31;110610;1240;59732;-74
2023/04/04 10:14:03;;;;;;;;;;;;;;;3.52;100.00;96768.33;110630;1240;59637;-74
2023/04/04 10:16:35;;;;;;;;;;;;;;;3.53;100.00;96770.66;110599;1242;72019;-74
2023/04/04 10:19:06;;;;;;;;;;;;;;;3.53;100.00;96770.64;110409;1238;69609;-74
2023/04/04 10:21:35;;;;;;;;;;;;;;;3.64;100.00;96767.30;110615;1241;69353;-74
2023/04/04 10:24:08;;;;;;;;;;;;;;;3.74;100.00;96767.60;110544;1240;59681;-74
2023/04/04 10:26:37;;;;;;;;;;;;;;;3.84;100.00;96765.85;110620;1242;59791;-74
2023/04/04 10:29:06;;;;;;;;;;;;;;;4.00;100.00;96769.23;110615;1242;70380;-73
2023/04/04 10:31:40;;;;;;;;;;;;;;;4.16;100.00;96768.36;110626;1242;69201;-74
2023/04/04 10:34:24;;;;;;;;;;;;;;;4.16;100.00;96768.50;110564;1240;69866;-74
2023/04/04 10:36:56;;;;;;;;;;;;;;;4.33;100.00;96768.77;110606;1240;59696;-75
2023/04/04 10:39:26;;;;;;;;;;;;;;;4.46;100.00;96767.98;110639;1241;59670;-74
2023/04/04 10:41:57;;;;;;;;;;;;;;;4.60;99.74;96764.56;110479;1242;70707;-74
2023/04/04 10:44:32;;;;;;;;;;;;;;;4.44;98.69;96766.73;110357;1242;69185;-74
2023/04/04 10:47:22;;;;;;;;;;;;;;;4.43;98.44;96765.73;110374;1241;69219;-74
2023/04/04 10:49:51;;;;;;;;;;;;;;;4.38;99.52;96767.75;110388;1242;59722;-74
2023/04/04 10:52:21;;;;;;;;;;;;;;;4.41;98.93;96770.87;110609;1238;59625;-73
2023/04/04 10:54:53;;;;;;;;;;;;;;;4.48;99.29;96767.37;110665;1241;71389;-74
2023/04/04 10:57:22;;;;;;;;;;;;;;;4.45;97.06;96769.91;110601;1242;69197;-74
2023/04/04 10:59:57;;;;;;;;;;;;;;;4.34;97.09;96766.09;110630;1240;69066;-74
2023/04/04 11:02:45;;;;;;;;;;;;;;;4.22;97.32;96768.52;110495;1241;59750;-74
2023/04/04 11:05:21;;;;;;;;;;;;;;;4.11;97.36;96769.48;110526;1242;59695;-73
2023/04/04 11:07:56;;;;;;;;;;;;;;;4.00;97.49;96768.05;110476;1242;71367;-74
2023/04/04 11:10:36;;;;;;;;;;;;;;;3.88;97.52;96765.79;110467;1238;70135;-74
2023/04/04 11:13:13;;;;;;;;;;;;;;;3.82;97.76;96769.08;110351;1242;68367;-74
2023/04/04 11:15:53;;;;;;;;;;;;;;;3.76;98.23;96767.16;110580;1242;59696;-74
2023/04/04 11:18:22;;;;;;;;;;;;;;;3.75;98.17;96769.08;110577;1241;59690;-73
2023/04/04 11:21:01;;;;;;;;;;;;;;;3.71;98.82;96771.20;110373;1239;71970;-73
2023/04/04 11:23:49;;;;;;;;;;;;;;;3.71;99.05;96767.41;110620;1241;68928;-73
2023/04/04 11:26:26;;;;;;;;;;;;;;;3.73;99.59;96767.85;110717;1241;69925;-73
2023/04/04 11:28:56;;;;;;;;;;;;;;;3.72;99.91;96771.36;110643;1241;59753;-73
2023/04/04 11:31:29;;;;;;;;;;;;;;;3.72;100.00;96769.42;110554;1242;59680;-73
2023/04/04 11:33:57;;;;;;;;;;;;;;;3.77;100.00;96768.64;110513;1241;71378;-72
2023/04/04 11:36:43;;;;;;;;;;;;;;;3.77;99.58;96765.00;110439;1241;69229;-73
2023/04/04 11:39:15;;;;;;;;;;;;;;;3.76;99.14;96770.95;110551;1241;69637;-75
2023/04/04 11:41:48;;;;;;;;;;;;;;;3.74;99.05;96770.88;110486;1242;59747;-74
2023/04/04 11:44:16;;;;;;;;;;;;;;;3.67;98.77;96769.02;110529;1242;59630;-74
2023/04/04 11:46:48;;;;;;;;;;;;;;;3.59;99.34;96772.75;110476;1241;71966;-73
2023/04/04 11:49:18;;;;;;;;;;;;;;;3.52;100.00;96773.95;110447;1242;69215;-74
2023/04/04 11:51:48;;;;;;;;;;;;;;;3.44;100.00;96775.09;110484;1242;69080;-73
2023/04/04 11:54:17;;;;;;;;;;;;;;;3.37;100.00;96777.05;110398;1242;59678;-73
2023/04/04 11:56:45;;;;;;;;;;;;;;;3.29;100.00;96781.92;110435;1241;59731;-73
2023/04/04 11:59:21;;;;;;;;;;;;;;;3.16;100.00;96784.05;110522;1241;72049;-73
2023/04/04 12:01:50;;;;;;;;;;;;;;;3.06;100.00;96785.25;110415;1242;69628;-73
2023/04/04 12:04:19;;;;;;;;;;;;;;;3.03;100.00;96785.91;110178;1245;68675;-73
2023/04/04 12:06:50;;;;;;;;;;;;;;;3.00;100.00;96786.92;110441;1242;59686;-73
2023/04/04 12:09:19;;;;;;;;;;;;;;;2.97;100.00;96785.02;110362;1242;59601;-73
2023/04/04 12:11:48;;;;;;;;;;;;;;;2.94;100.00;96786.53;110463;1242;70766;-73
2023/04/04 12:14:20;;;;;;;;;;;;;;;2.86;100.00;96790.27;110418;1242;69788;-74
2023/04/04 12:16:53;;;;;;;;;;;;;;;2.74;100.00;96791.39;110322;1242;69335;-74
2023/04/04 12:19:23;;;;;;;;;;;;;;;2.65;100.00;96792.88;110422;1242;59658;-73
2023/04/04 12:21:52;;;;;;;;;;;;;;;2.57;100.00;96792.41;110549;1248;60062;-73
2023/04/04 12:24:21;;;;;;;;;;;;;;;2.59;100.00;96796.12;110514;1242;71228;-74
2023/04/04 12:26:51;;;;;;;;;;;;;;;2.52;100.00;96796.77;110429;1241;69578;-73
2023/04/04 12:29:21;;;;;;;;;;;;;;;2.49;100.00;96800.40;110406;1243;70044;-73
2023/04/04 12:31:50;;;;;;;;;;;;;;;2.45;100.00;96801.11;110425;1241;59676;-73
2023/04/04 12:34:23;;;;;;;;;;;;;;;2.40;100.00;96804.81;110527;1242;59621;-73
2023/04/04 12:36:52;;;;;;;;;;;;;;;2.30;100.00;96808.05;110365;1241;71201;-73
2023/04/04 12:39:21;;;;;;;;;;;;;;;2.23;100.00;96812.01;110381;1241;69889;-73
2023/04/04 12:41:51;;;;;;;;;;;;;;;2.11;100.00;96813.64;110481;1240;69100;-74
2023/04/04 12:44:30;;;;;;;;;;;;;;;2.01;100.00;96819.08;110519;1241;59710;-73
2023/04/04 12:47:00;;;;;;;;;;;;;;;1.94;100.00;96819.58;110398;1242;59685;-73
2023/04/04 12:49:31;;;;;;;;;;;;;;;1.89;100.00;96819.35;110424;1242;70418;-75
2023/04/04 12:52:03;;;;;;;;;;;;;;;1.72;100.00;96824.05;110408;1242;68500;-73
2023/04/04 12:54:34;;;;;;;;;;;;;;;1.69;100.00;96824.38;110574;1242;69901;-73
2023/04/04 12:57:04;;;;;;;;;;;;;;;1.64;100.00;96821.85;110475;1242;60127;-73
2023/04/04 12:59:34;;;;;;;;;;;;;;;1.61;100.00;96824.06;110542;1243;59600;-73